Time;durP1;ratioP1;P1;durP2;ratioP2;P2;SDS_P1;SDS_P2;PMS_P1;PMS_P2;Temp;Humidity;BMP_temperature;BMP_pressure;BME280_temperature;BME280_humidity;BME280_pressure;Samples;Min_cycle;Max_cycle;Signal;HPM_P1;HPM_P2
2022/12/09 00:00:29;;;;;;;37.20;20.37;;;2.10;99.90;;;;;;4147633;28;20333;-62
2022/12/09 00:02:30;;;;;;;37.33;20.20;;;2.00;99.90;;;;;;4146846;28;20341;-61
2022/12/09 00:04:32;;;;;;;37.60;20.10;;;2.00;99.90;;;;;;4159487;28;20341;-63
2022/12/09 00:06:33;;;;;;;36.37;19.27;;;2.10;99.90;;;;;;4161834;28;20796;-63
2022/12/09 00:08:35;;;;;;;38.17;20.47;;;2.00;99.90;;;;;;4163345;28;20298;-63
2022/12/09 00:10:36;;;;;;;40.97;21.83;;;2.00;99.90;;;;;;4164140;28;20287;-64
2022/12/09 00:12:37;;;;;;;37.57;20.10;;;1.90;99.90;;;;;;4153194;28;20272;-62
2022/12/09 00:14:38;;;;;;;35.23;19.80;;;2.00;99.90;;;;;;4150788;28;20278;-62
2022/12/09 00:16:39;;;;;;;38.63;20.30;;;2.00;99.90;;;;;;4151225;28;20295;-62
2022/12/09 00:18:41;;;;;;;39.03;20.43;;;2.00;99.90;;;;;;4148032;28;20322;-63
2022/12/09 00:20:42;;;;;;;38.93;21.50;;;2.00;99.90;;;;;;4146756;28;20317;-61
2022/12/09 00:22:43;;;;;;;40.87;20.30;;;2.00;99.90;;;;;;4147567;28;20341;-61
2022/12/09 00:24:44;;;;;;;40.67;20.60;;;2.00;99.90;;;;;;4149738;28;20325;-61
2022/12/09 00:26:46;;;;;;;36.97;20.07;;;2.00;99.90;;;;;;4164022;28;20321;-62
2022/12/09 00:28:48;;;;;;;39.70;20.63;;;2.00;99.90;;;;;;4162943;28;20762;-62
2022/12/09 00:30:49;;;;;;;38.07;20.73;;;1.90;99.90;;;;;;4163655;28;20302;-62
2022/12/09 00:32:50;;;;;;;36.90;19.13;;;1.90;99.90;;;;;;4163077;28;20864;-61
2022/12/09 00:34:52;;;;;;;41.93;21.87;;;1.80;99.90;;;;;;4163114;28;20333;-63
2022/12/09 00:36:53;;;;;;;38.73;21.43;;;1.80;99.90;;;;;;4162837;28;20600;-61
2022/12/09 00:38:56;;;;;;;40.03;20.83;;;1.80;99.90;;;;;;4161925;28;20283;-62
2022/12/09 00:40:57;;;;;;;41.33;21.83;;;1.80;99.90;;;;;;4163516;28;20267;-61
2022/12/09 00:42:58;;;;;;;37.43;21.43;;;1.80;99.90;;;;;;4161061;28;20267;-61
2022/12/09 00:44:59;;;;;;;39.97;20.60;;;1.80;99.90;;;;;;4158714;28;20623;-63
2022/12/09 00:47:01;;;;;;;38.40;21.87;;;1.80;99.90;;;;;;4161263;28;20344;-61
2022/12/09 00:49:03;;;;;;;41.37;23.17;;;1.80;99.90;;;;;;4148733;28;20279;-62
2022/12/09 00:51:09;;;;;;;39.63;20.80;;;1.80;99.90;;;;;;4146006;28;20330;-62
2022/12/09 00:53:11;;;;;;;42.13;21.77;;;1.80;99.90;;;;;;4147245;28;20271;-62
2022/12/09 00:55:12;;;;;;;40.00;21.57;;;1.80;99.90;;;;;;4146081;28;20283;-62
2022/12/09 00:57:13;;;;;;;42.73;23.10;;;1.80;99.90;;;;;;4147019;28;20275;-62
2022/12/09 00:59:14;;;;;;;40.87;22.73;;;1.70;99.90;;;;;;4146019;28;20334;-63
2022/12/09 01:01:15;;;;;;;45.93;27.13;;;1.70;99.90;;;;;;4147364;28;20313;-66
2022/12/09 01:03:17;;;;;;;46.53;26.20;;;1.70;99.90;;;;;;4146131;28;20615;-63
2022/12/09 01:05:18;;;;;;;44.90;25.70;;;1.70;99.90;;;;;;4147909;28;20274;-63
2022/12/09 01:07:19;;;;;;;39.70;21.20;;;1.70;99.90;;;;;;4147293;28;20277;-62
2022/12/09 01:09:20;;;;;;;40.80;21.87;;;1.60;99.90;;;;;;4148087;28;20275;-61
2022/12/09 01:11:27;;;;;;;38.13;19.57;;;1.60;99.90;;;;;;4163023;28;20733;-63
2022/12/09 01:13:28;;;;;;;42.27;21.37;;;1.60;99.90;;;;;;4162748;28;20262;-63
2022/12/09 01:15:29;;;;;;;37.30;20.03;;;1.60;99.90;;;;;;4163178;28;20701;-61
2022/12/09 01:17:30;;;;;;;42.30;21.57;;;1.70;99.90;;;;;;4162321;28;21288;-64
2022/12/09 01:19:31;;;;;;;38.63;20.97;;;1.60;99.90;;;;;;4162791;28;20290;-66
2022/12/09 01:21:33;;;;;;;41.07;20.80;;;1.70;99.90;;;;;;4162132;28;20279;-64
2022/12/09 01:23:34;;;;;;;44.63;23.50;;;1.70;99.90;;;;;;4163162;28;20670;-65
2022/12/09 01:25:37;;;;;;;50.20;27.67;;;1.70;99.90;;;;;;4161962;28;20270;-61
2022/12/09 01:27:38;;;;;;;44.90;23.47;;;1.70;99.90;;;;;;4163157;28;20635;-65
2022/12/09 01:29:39;;;;;;;41.00;22.40;;;1.60;99.90;;;;;;4161980;28;20321;-64
2022/12/09 01:31:40;;;;;;;41.87;22.90;;;1.60;99.90;;;;;;4163165;28;20696;-63
2022/12/09 01:33:42;;;;;;;39.47;22.77;;;1.60;99.90;;;;;;4155999;28;20271;-62
2022/12/09 01:35:43;;;;;;;41.90;22.10;;;1.60;99.90;;;;;;4146600;28;20675;-62
2022/12/09 01:37:44;;;;;;;37.57;20.57;;;1.60;99.90;;;;;;4145494;28;20267;-61
2022/12/09 01:39:45;;;;;;;39.23;20.70;;;1.60;99.90;;;;;;4149695;28;20278;-64
2022/12/09 01:41:48;;;;;;;40.93;22.30;;;1.60;99.90;;;;;;4162162;28;20266;-62
2022/12/09 01:44:09;;;;;;;40.77;21.97;;;1.60;99.90;;;;;;4162363;28;20325;-66
2022/12/09 01:46:10;;;;;;;46.20;24.40;;;1.70;99.90;;;;;;4157259;28;20758;-62
2022/12/09 01:48:14;;;;;;;41.90;22.50;;;1.70;99.90;;;;;;4161848;28;20477;-66
2022/12/09 01:50:16;;;;;;;40.43;21.87;;;1.70;99.90;;;;;;4161750;28;20309;-63
2022/12/09 01:52:21;;;;;;;46.07;22.27;;;1.70;99.90;;;;;;4160998;28;20321;-62
2022/12/09 01:54:23;;;;;;;41.27;22.73;;;1.80;99.90;;;;;;4162136;28;20274;-64
2022/12/09 01:56:34;;;;;;;41.47;21.07;;;1.80;99.90;;;;;;4161719;28;20796;-62
2022/12/09 01:58:36;;;;;;;42.93;22.27;;;1.80;99.90;;;;;;4160382;28;20675;-62
2022/12/09 02:00:37;;;;;;;42.40;22.97;;;1.80;99.90;;;;;;4161539;28;20322;-62
2022/12/09 02:02:40;;;;;;;44.33;23.80;;;1.70;99.90;;;;;;4161997;28;20317;-65
2022/12/09 02:04:44;;;;;;;49.47;27.93;;;1.70;99.90;;;;;;4161481;28;20662;-63
2022/12/09 02:06:45;;;;;;;56.30;30.20;;;1.70;99.90;;;;;;4160950;28;20270;-62
2022/12/09 02:08:48;;;;;;;45.00;24.90;;;1.70;99.90;;;;;;4161166;28;20254;-62
2022/12/09 02:11:05;;;;;;;52.33;25.63;;;1.80;99.90;;;;;;4150230;28;20703;-63
2022/12/09 02:13:12;;;;;;;51.17;27.00;;;1.80;99.90;;;;;;4145104;28;20756;-63
2022/12/09 02:15:24;;;;;;;78.50;39.27;;;1.80;99.90;;;;;;4146083;28;20354;-63
2022/12/09 02:17:49;;;;;;;68.10;33.60;;;1.80;99.90;;;;;;4145146;28;20275;-62
2022/12/09 02:20:10;;;;;;;43.80;23.57;;;1.70;99.90;;;;;;4157392;28;20766;-62
2022/12/09 02:22:18;;;;;;;53.20;28.83;;;1.70;99.90;;;;;;4160725;28;20325;-60
2022/12/09 02:24:39;;;;;;;47.47;25.90;;;1.70;99.90;;;;;;4151578;28;20330;-61
2022/12/09 02:26:58;;;;;;;52.43;28.03;;;1.60;99.90;;;;;;4144992;28;20271;-62
2022/12/09 02:29:13;;;;;;;48.97;25.30;;;1.50;99.90;;;;;;4145685;28;20263;-61
2022/12/09 02:31:23;;;;;;;49.13;25.17;;;1.60;99.90;;;;;;4144992;28;20369;-63
2022/12/09 02:33:25;;;;;;;51.10;28.48;;;1.50;99.90;;;;;;4145503;28;20264;-62
2022/12/09 02:35:36;;;;;;;45.20;23.60;;;1.50;99.90;;;;;;4144839;28;20042;-61
2022/12/09 02:37:58;;;;;;;49.60;25.03;;;1.60;99.90;;;;;;4145354;28;20271;-62
2022/12/09 02:40:06;;;;;;;51.27;26.07;;;1.60;99.90;;;;;;4145051;28;20325;-62
2022/12/09 02:42:10;;;;;;;49.57;25.57;;;1.60;99.90;;;;;;4144813;28;20817;-62
2022/12/09 02:44:17;;;;;;;47.33;23.63;;;1.60;99.90;;;;;;4148923;28;20345;-66
2022/12/09 02:46:19;;;;;;;42.57;23.00;;;1.70;99.90;;;;;;4154744;28;20764;-61
2022/12/09 02:48:24;;;;;;;44.47;23.33;;;1.70;99.90;;;;;;4158613;28;20270;-61
2022/12/09 02:50:29;;;;;;;46.40;22.03;;;1.70;99.90;;;;;;4161456;28;20341;-61
2022/12/09 02:52:32;;;;;;;50.73;25.20;;;1.70;99.90;;;;;;4160730;28;20332;-62
2022/12/09 02:54:36;;;;;;;48.53;23.10;;;1.60;99.90;;;;;;4161689;28;20279;-62
2022/12/09 02:56:40;;;;;;;56.67;23.80;;;1.70;99.90;;;;;;4160132;28;20274;-62
2022/12/09 02:58:41;;;;;;;64.47;26.43;;;1.70;99.90;;;;;;4161485;28;20278;-63
2022/12/09 03:00:43;;;;;;;67.80;27.87;;;1.80;99.90;;;;;;4160499;28;20283;-62
2022/12/09 03:02:48;;;;;;;73.20;28.53;;;1.70;99.90;;;;;;4160984;28;20366;-63
2022/12/09 03:05:18;;;;;;;89.50;28.00;;;1.70;99.90;;;;;;4160194;28;20336;-62
2022/12/09 03:07:29;;;;;;;65.77;26.63;;;1.70;99.90;;;;;;4158438;28;20283;-62
2022/12/09 03:09:33;;;;;;;;;;;1.70;99.90;;;;;;4155796;28;20286;-63
2022/12/09 03:11:35;;;;;;;76.70;28.63;;;1.70;99.90;;;;;;4144912;28;19917;-63
2022/12/09 03:13:51;;;;;;;81.57;32.30;;;1.70;99.90;;;;;;4144124;28;20337;-62
2022/12/09 03:16:03;;;;;;;73.57;31.00;;;1.70;99.90;;;;;;4149015;28;20279;-63
2022/12/09 03:18:09;;;;;;;82.00;29.60;;;1.80;99.90;;;;;;4160673;28;20346;-63
2022/12/09 03:20:15;;;;;;;139.77;36.33;;;1.80;99.90;;;;;;4161400;28;20271;-63
2022/12/09 03:22:21;;;;;;;108.60;33.33;;;1.80;99.90;;;;;;4153437;28;20337;-65
2022/12/09 03:24:29;;;;;;;91.73;35.90;;;1.80;99.90;;;;;;4145381;28;20314;-63
2022/12/09 03:26:32;;;;;;;109.03;36.27;;;1.90;99.90;;;;;;4144113;28;20270;-62
2022/12/09 03:28:40;;;;;;;239.37;41.00;;;1.90;99.90;;;;;;4154143;28;20332;-68
2022/12/09 03:30:44;;;;;;;98.30;32.30;;;1.90;99.90;;;;;;4159964;28;20310;-64
2022/12/09 03:32:46;;;;;;;159.47;37.23;;;1.80;99.90;;;;;;4161607;28;20267;-63
2022/12/09 03:34:50;;;;;;;121.53;32.83;;;1.90;99.90;;;;;;4160469;28;20293;-63
2022/12/09 03:36:52;;;;;;;88.37;27.87;;;1.90;99.90;;;;;;4161064;28;20275;-63
2022/12/09 03:38:54;;;;;;;95.73;28.17;;;1.80;99.90;;;;;;4159993;28;20742;-60
2022/12/09 03:41:27;;;;;;;185.93;33.83;;;1.90;99.90;;;;;;4156677;28;20767;-61
2022/12/09 03:43:33;;;;;;;145.23;28.27;;;1.80;99.90;;;;;;4134866;28;20403;-64
2022/12/09 03:45:34;;;;;;;149.53;27.73;;;1.70;99.90;;;;;;4150855;28;20808;-63
2022/12/09 03:47:36;;;;;;;120.87;29.27;;;1.70;99.90;;;;;;4147242;28;20333;-62
2022/12/09 03:49:38;;;;;;;122.13;25.73;;;1.70;99.90;;;;;;4145818;28;20743;-62
2022/12/09 03:51:59;;;;;;;197.57;30.43;;;1.60;99.90;;;;;;4143591;28;20357;-63
2022/12/09 03:54:22;;;;;;;110.90;26.60;;;1.70;99.90;;;;;;4145026;28;20279;-62
2022/12/09 03:56:31;;;;;;;195.63;28.13;;;1.60;99.90;;;;;;4144032;28;20267;-62
2022/12/09 03:58:33;;;;;;;238.97;33.07;;;1.60;99.90;;;;;;4152914;28;20747;-62
2022/12/09 04:00:38;;;;;;;371.73;37.37;;;1.60;99.90;;;;;;4160143;28;20255;-62
2022/12/09 04:02:39;;;;;;;157.97;28.37;;;1.50;99.90;;;;;;4161190;28;20293;-62
2022/12/09 04:04:41;;;;;;;218.83;30.47;;;1.50;99.90;;;;;;4159396;28;20274;-62
2022/12/09 04:06:42;;;;;;;203.57;30.37;;;1.50;99.90;;;;;;4159150;28;20279;-60
2022/12/09 04:08:43;;;;;;;266.87;32.10;;;1.50;99.90;;;;;;4159903;28;20646;-61
2022/12/09 04:10:44;;;;;;;371.40;35.60;;;1.50;99.90;;;;;;4147658;28;20271;-62
2022/12/09 04:12:46;;;;;;;393.07;36.50;;;1.40;99.90;;;;;;4144808;28;20264;-60
2022/12/09 04:14:47;;;;;;;171.80;26.70;;;1.50;99.90;;;;;;4146752;28;20263;-61
2022/12/09 04:16:48;;;;;;;279.77;31.60;;;1.40;99.90;;;;;;4148306;28;20321;-61
2022/12/09 04:18:49;;;;;;;204.73;27.97;;;1.40;99.90;;;;;;4146392;28;20283;-62
2022/12/09 04:20:50;;;;;;;295.70;34.93;;;1.40;99.90;;;;;;4147903;28;20813;-61
2022/12/09 04:22:51;;;;;;;218.40;30.10;;;1.40;99.90;;;;;;4146479;28;20748;-60
2022/12/09 04:24:52;;;;;;;136.83;29.40;;;1.40;99.90;;;;;;4147763;28;20279;-61
2022/12/09 04:26:53;;;;;;;143.13;27.87;;;1.40;99.90;;;;;;4146107;28;20268;-62
2022/12/09 04:28:55;;;;;;;203.80;35.93;;;1.40;99.90;;;;;;4147648;28;20264;-62
2022/12/09 04:30:57;;;;;;;285.87;37.47;;;1.50;99.90;;;;;;4147426;28;20305;-64
2022/12/09 04:32:59;;;;;;;282.23;34.80;;;1.40;99.90;;;;;;4147586;28;21063;-62
2022/12/09 04:35:00;;;;;;;245.17;34.57;;;1.40;99.90;;;;;;4150855;28;20263;-63
2022/12/09 04:37:01;;;;;;;203.90;33.83;;;1.40;99.90;;;;;;4163269;28;20263;-62
2022/12/09 04:39:02;;;;;;;286.97;37.10;;;1.40;99.90;;;;;;4163078;28;20369;-61
2022/12/09 04:41:04;;;;;;;169.63;28.87;;;1.40;99.90;;;;;;4161206;28;20286;-62
2022/12/09 04:43:05;;;;;;;220.73;31.93;;;1.40;99.90;;;;;;4163495;28;20738;-61
2022/12/09 04:45:06;;;;;;;378.97;40.57;;;1.30;99.90;;;;;;4147283;28;20271;-61
2022/12/09 04:47:07;;;;;;;226.23;31.97;;;1.30;99.90;;;;;;4148745;28;20809;-61
2022/12/09 04:49:08;;;;;;;317.47;37.93;;;1.30;99.90;;;;;;4156775;28;20333;-62
2022/12/09 04:51:11;;;;;;;230.10;30.87;;;1.30;99.90;;;;;;4146497;28;20354;-61
2022/12/09 04:53:12;;;;;;;204.60;33.53;;;1.30;99.90;;;;;;4149780;28;20336;-62
2022/12/09 04:55:14;;;;;;;240.97;34.90;;;1.30;99.90;;;;;;4148398;28;20342;-66
2022/12/09 04:57:16;;;;;;;175.77;28.87;;;1.30;99.90;;;;;;4145985;28;20329;-63
2022/12/09 04:59:17;;;;;;;173.03;26.60;;;1.20;99.90;;;;;;4150477;28;20278;-62
2022/12/09 05:01:21;;;;;;;140.03;25.60;;;1.20;99.90;;;;;;4150050;28;20326;-62
2022/12/09 05:03:22;;;;;;;178.03;28.67;;;1.20;99.90;;;;;;4146382;28;20418;-63
2022/12/09 05:05:23;;;;;;;121.13;24.90;;;1.20;99.90;;;;;;4145058;28;20256;-63
2022/12/09 05:07:24;;;;;;;158.97;28.03;;;1.20;99.90;;;;;;4156144;28;20301;-63
2022/12/09 05:09:26;;;;;;;134.40;27.77;;;1.20;99.90;;;;;;4159708;28;20258;-62
2022/12/09 05:11:27;;;;;;;264.23;36.13;;;1.20;99.90;;;;;;4146358;28;20295;-62
2022/12/09 05:13:28;;;;;;;335.87;35.13;;;1.30;99.90;;;;;;4146988;28;20704;-61
2022/12/09 05:15:29;;;;;;;175.53;33.13;;;1.20;99.90;;;;;;4146334;28;20336;-62
2022/12/09 05:17:30;;;;;;;212.70;35.20;;;1.20;99.90;;;;;;4147028;28;20267;-62
2022/12/09 05:19:31;;;;;;;325.43;40.57;;;1.20;99.90;;;;;;4145251;28;20310;-61
2022/12/09 05:21:33;;;;;;;338.13;40.67;;;1.20;99.90;;;;;;4146468;28;20271;-61
2022/12/09 05:23:34;;;;;;;320.50;41.60;;;1.20;99.90;;;;;;4145460;28;20271;-61
2022/12/09 05:25:36;;;;;;;368.60;42.03;;;1.20;99.90;;;;;;4146001;28;20821;-61
2022/12/09 05:27:37;;;;;;;238.97;35.10;;;1.30;99.90;;;;;;4155724;28;20349;-61
2022/12/09 05:29:38;;;;;;;161.73;30.13;;;1.30;99.90;;;;;;4155090;28;20283;-62
2022/12/09 05:31:39;;;;;;;376.60;46.13;;;1.20;99.90;;;;;;4142970;28;20287;-63
2022/12/09 05:33:40;;;;;;;237.80;36.10;;;1.30;99.90;;;;;;4145951;28;20330;-63
2022/12/09 05:35:44;;;;;;;173.87;32.93;;;1.30;99.90;;;;;;4133334;28;20303;-63
2022/12/09 05:37:45;;;;;;;139.60;31.13;;;1.40;99.90;;;;;;4154490;28;20274;-61
2022/12/09 05:39:46;;;;;;;213.17;31.97;;;1.40;99.90;;;;;;4140582;28;20349;-63
2022/12/09 05:41:48;;;;;;;141.77;31.83;;;1.40;99.90;;;;;;4139040;28;20284;-62
2022/12/09 05:43:49;;;;;;;212.17;34.17;;;1.40;99.90;;;;;;4139904;28;20275;-62
2022/12/09 05:45:51;;;;;;;169.03;32.13;;;1.40;99.90;;;;;;4144894;28;20298;-61
2022/12/09 05:47:52;;;;;;;131.73;31.97;;;1.50;99.90;;;;;;4155200;28;20319;-62
2022/12/09 05:49:53;;;;;;;249.80;40.33;;;1.40;99.90;;;;;;4159635;28;20279;-61
2022/12/09 05:51:54;;;;;;;152.00;32.47;;;1.50;99.90;;;;;;4148653;28;20714;-61
2022/12/09 05:53:59;;;;;;;147.10;33.60;;;1.50;99.90;;;;;;4150729;28;20284;-62
2022/12/09 05:56:00;;;;;;;252.57;41.23;;;1.50;99.90;;;;;;4146037;28;20279;-61
2022/12/09 05:58:01;;;;;;;117.43;34.57;;;1.60;99.90;;;;;;4144745;28;20267;-62
2022/12/09 06:00:05;;;;;;;98.17;33.20;;;1.60;99.90;;;;;;4145970;28;20283;-61
2022/12/09 06:02:06;;;;;;;180.53;38.83;;;1.60;99.90;;;;;;4160180;28;20348;-61
2022/12/09 06:04:07;;;;;;;136.23;36.33;;;1.70;99.90;;;;;;4162226;28;20267;-64
2022/12/09 06:06:11;;;;;;;177.80;39.57;;;1.70;99.90;;;;;;4152286;28;20638;-62
2022/12/09 06:08:12;;;;;;;203.03;39.70;;;1.70;99.90;;;;;;4154025;28;20303;-63
2022/12/09 06:10:13;;;;;;;197.40;35.63;;;1.80;99.90;;;;;;4150099;28;20653;-61
2022/12/09 06:12:14;;;;;;;184.53;36.90;;;1.80;99.90;;;;;;4155970;28;20353;-64
2022/12/09 06:14:15;;;;;;;159.60;33.17;;;1.80;99.90;;;;;;4146201;28;20381;-64
2022/12/09 06:16:18;;;;;;;203.13;36.37;;;1.80;99.90;;;;;;4147768;28;20321;-66
2022/12/09 06:18:20;;;;;;;145.97;30.93;;;1.80;99.90;;;;;;4159419;28;20813;-64
2022/12/09 06:20:21;;;;;;;300.93;36.37;;;1.80;99.90;;;;;;4147763;28;20291;-63
2022/12/09 06:22:23;;;;;;;288.47;37.17;;;1.80;99.90;;;;;;4144940;28;20661;-62
2022/12/09 06:24:24;;;;;;;312.43;39.23;;;1.80;99.90;;;;;;4142688;28;20314;-62
2022/12/09 06:26:27;;;;;;;243.47;40.63;;;1.80;99.90;;;;;;4144823;28;20272;-63
2022/12/09 06:28:29;;;;;;;255.17;35.80;;;1.80;99.90;;;;;;4144324;28;20349;-63
2022/12/09 06:30:30;;;;;;;144.83;34.90;;;1.80;99.90;;;;;;4145423;28;20267;-63
2022/12/09 06:32:31;;;;;;;105.57;33.73;;;1.80;99.90;;;;;;4144436;28;20355;-66
2022/12/09 06:34:32;;;;;;;333.60;39.90;;;1.90;99.90;;;;;;4143169;28;20818;-63
2022/12/09 06:36:34;;;;;;;320.70;45.20;;;1.90;99.90;;;;;;4143407;28;20810;-62
2022/12/09 06:38:35;;;;;;;207.17;37.10;;;1.90;99.90;;;;;;4145436;28;20283;-63
2022/12/09 06:40:41;;;;;;;232.40;39.87;;;1.90;99.90;;;;;;4144220;28;20317;-62
2022/12/09 06:42:42;;;;;;;197.13;33.97;;;1.90;99.90;;;;;;4145331;28;20302;-61
2022/12/09 06:44:43;;;;;;;206.13;37.97;;;1.90;99.90;;;;;;4144342;28;20322;-62
2022/12/09 06:46:44;;;;;;;227.77;38.70;;;1.90;99.90;;;;;;4144638;28;20279;-61
2022/12/09 06:48:46;;;;;;;268.13;41.47;;;2.00;99.90;;;;;;4144746;28;20259;-62
2022/12/09 06:50:48;;;;;;;181.93;37.87;;;2.00;99.90;;;;;;4144415;28;20307;-63
2022/12/09 06:52:50;;;;;;;424.87;50.57;;;1.90;99.90;;;;;;4144211;28;20767;-62
2022/12/09 06:54:51;;;;;;;376.53;47.73;;;2.00;99.90;;;;;;4144143;28;20301;-62
2022/12/09 06:56:52;;;;;;;370.20;43.03;;;1.90;99.90;;;;;;4145099;28;20809;-62
2022/12/09 06:58:53;;;;;;;312.40;41.43;;;2.00;99.90;;;;;;4143823;28;20325;-61
2022/12/09 07:00:54;;;;;;;317.43;46.70;;;1.90;99.90;;;;;;4145076;28;20279;-61
2022/12/09 07:02:55;;;;;;;309.27;39.90;;;2.00;99.90;;;;;;4143967;28;20271;-61
2022/12/09 07:04:56;;;;;;;156.17;37.40;;;2.00;99.90;;;;;;4145231;28;20619;-62
2022/12/09 07:06:57;;;;;;;352.37;42.00;;;2.00;99.90;;;;;;4143501;28;20279;-62
2022/12/09 07:09:02;;;;;;;323.83;40.90;;;2.00;99.90;;;;;;4145158;28;20322;-62
2022/12/09 07:11:03;;;;;;;177.80;31.87;;;1.90;99.90;;;;;;4143793;28;20267;-61
2022/12/09 07:13:04;;;;;;;222.10;36.73;;;1.90;99.90;;;;;;4144580;28;20328;-65
2022/12/09 07:15:05;;;;;;;218.73;33.00;;;1.90;99.90;;;;;;4143941;28;20256;-62
2022/12/09 07:17:07;;;;;;;318.17;38.03;;;1.90;99.90;;;;;;4144643;28;20267;-63
2022/12/09 07:19:16;;;;;;;370.57;41.03;;;1.90;99.90;;;;;;4144048;28;20334;-64
2022/12/09 07:21:19;;;;;;;302.63;37.43;;;1.80;99.90;;;;;;4144567;28;20263;-63
2022/12/09 07:23:20;;;;;;;296.23;37.57;;;1.90;99.90;;;;;;4144315;28;20671;-62
2022/12/09 07:25:21;;;;;;;238.77;34.43;;;1.80;99.90;;;;;;4144074;28;20255;-64
2022/12/09 07:27:22;;;;;;;337.53;38.87;;;1.80;99.90;;;;;;4144753;28;20341;-62
2022/12/09 07:29:23;;;;;;;354.90;45.07;;;1.90;99.90;;;;;;4143984;28;20738;-62
2022/12/09 07:31:27;;;;;;;206.07;34.00;;;1.90;99.90;;;;;;4144653;28;20275;-63
2022/12/09 07:33:28;;;;;;;219.87;37.70;;;1.90;99.90;;;;;;4143601;28;20675;-63
2022/12/09 07:35:29;;;;;;;280.20;39.80;;;1.90;99.90;;;;;;4145014;28;20275;-63
2022/12/09 07:37:30;;;;;;;308.10;45.03;;;1.90;99.90;;;;;;4143688;28;20731;-62
2022/12/09 07:39:32;;;;;;;289.70;37.83;;;2.00;99.90;;;;;;4144894;28;20349;-62
2022/12/09 07:41:33;;;;;;;234.80;44.33;;;2.00;99.90;;;;;;4143640;28;20271;-62
2022/12/09 07:43:35;;;;;;;340.50;49.30;;;1.90;99.90;;;;;;4145128;28;20326;-64
2022/12/09 07:45:36;;;;;;;295.10;39.87;;;2.00;99.90;;;;;;4143782;28;20272;-63
2022/12/09 07:47:37;;;;;;;316.63;42.53;;;2.00;99.90;;;;;;4144807;28;20794;-61
2022/12/09 07:49:39;;;;;;;254.53;38.47;;;2.00;99.90;;;;;;4146761;28;20766;-62
2022/12/09 07:51:40;;;;;;;497.80;51.00;;;2.00;99.90;;;;;;4147285;28;20287;-63
2022/12/09 07:53:42;;;;;;;273.13;39.47;;;2.10;99.90;;;;;;4147219;28;20275;-62
2022/12/09 07:55:43;;;;;;;209.17;34.20;;;2.10;99.90;;;;;;4147161;28;20329;-63
2022/12/09 07:57:44;;;;;;;265.07;39.70;;;2.10;99.90;;;;;;4147474;28;20739;-63
2022/12/09 07:59:45;;;;;;;379.77;49.10;;;2.00;99.90;;;;;;4146476;28;20272;-61
2022/12/09 08:01:46;;;;;;;239.23;38.77;;;2.10;99.90;;;;;;4147813;28;20731;-62
2022/12/09 08:03:48;;;;;;;233.83;36.53;;;2.10;99.90;;;;;;4146380;28;20260;-62
2022/12/09 08:05:51;;;;;;;242.17;37.53;;;2.10;99.90;;;;;;4147853;28;20748;-63
2022/12/09 08:07:52;;;;;;;289.73;39.40;;;2.10;99.90;;;;;;4146647;28;20666;-63
2022/12/09 08:09:55;;;;;;;423.23;49.87;;;2.00;99.90;;;;;;4147563;28;20271;-62
2022/12/09 08:11:56;;;;;;;271.10;35.50;;;2.00;99.90;;;;;;4146478;28;20343;-64
2022/12/09 08:13:59;;;;;;;263.47;41.40;;;2.00;99.90;;;;;;4147606;28;20342;-62
2022/12/09 08:16:05;;;;;;;230.33;36.63;;;2.00;99.90;;;;;;4145966;28;20259;-61
2022/12/09 08:18:06;;;;;;;241.97;38.57;;;2.00;99.90;;;;;;4147368;28;20259;-61
2022/12/09 08:20:07;;;;;;;267.63;37.00;;;2.00;99.90;;;;;;4146441;28;20302;-62
2022/12/09 08:22:09;;;;;;;387.23;40.13;;;1.90;99.90;;;;;;4147195;28;20321;-67
2022/12/09 08:24:11;;;;;;;204.67;31.07;;;1.80;99.90;;;;;;4146265;28;20322;-63
2022/12/09 08:26:13;;;;;;;194.73;29.60;;;1.80;99.90;;;;;;4146794;28;20752;-63
2022/12/09 08:28:14;;;;;;;291.67;34.83;;;1.80;99.90;;;;;;4146804;28;20585;-64
2022/12/09 08:30:16;;;;;;;177.90;28.20;;;1.70;99.90;;;;;;4146216;28;20413;-63
2022/12/09 08:32:17;;;;;;;264.10;36.87;;;1.70;99.90;;;;;;4146784;28;20291;-64
2022/12/09 08:34:18;;;;;;;213.50;33.60;;;1.80;99.90;;;;;;4145698;28;20329;-65
2022/12/09 08:36:24;;;;;;;198.20;33.10;;;1.80;99.90;;;;;;4147293;28;20593;-63
2022/12/09 08:38:25;;;;;;;177.33;30.03;;;1.80;99.90;;;;;;4145500;28;20840;-63
2022/12/09 08:40:27;;;;;;;170.07;32.10;;;1.70;99.90;;;;;;4147067;28;20275;-62
2022/12/09 08:42:29;;;;;;;304.60;40.73;;;1.80;99.90;;;;;;4146015;28;20268;-64
2022/12/09 08:44:30;;;;;;;138.17;27.10;;;1.80;99.90;;;;;;4146982;28;20263;-63
2022/12/09 08:46:32;;;;;;;217.17;31.17;;;1.80;99.90;;;;;;4145949;28;20268;-67
2022/12/09 08:48:38;;;;;;;192.40;28.83;;;1.80;99.90;;;;;;4146853;28;20251;-66
2022/12/09 08:50:39;;;;;;;194.90;32.13;;;1.80;99.90;;;;;;4145924;28;20681;-67
2022/12/09 08:52:41;;;;;;;184.90;32.03;;;1.70;99.90;;;;;;4146523;28;20295;-64
2022/12/09 08:54:42;;;;;;;131.03;26.93;;;1.70;99.90;;;;;;4145785;28;20321;-65
2022/12/09 08:56:48;;;;;;;122.97;29.57;;;1.80;99.90;;;;;;4146630;28;20347;-64
2022/12/09 08:58:49;;;;;;;114.73;26.93;;;1.80;99.90;;;;;;4145967;28;20789;-66
2022/12/09 09:00:51;;;;;;;98.43;26.67;;;1.80;99.90;;;;;;4145474;28;20279;-62
2022/12/09 09:02:52;;;;;;;158.47;28.80;;;1.80;99.90;;;;;;4146182;28;20256;-63
2022/12/09 09:04:53;;;;;;;88.23;25.97;;;1.70;99.90;;;;;;4146206;28;20333;-63
2022/12/09 09:06:54;;;;;;;91.60;26.20;;;1.70;99.90;;;;;;4146533;28;20272;-67
2022/12/09 09:08:56;;;;;;;122.50;29.07;;;1.70;99.90;;;;;;4145368;28;20698;-64
2022/12/09 09:10:58;;;;;;;84.83;25.60;;;1.70;99.90;;;;;;4145126;28;20267;-62
2022/12/09 09:12:59;;;;;;;110.60;27.90;;;1.70;99.90;;;;;;4145149;28;20706;-62
2022/12/09 09:15:00;;;;;;;119.27;27.10;;;1.70;99.90;;;;;;4146301;28;20322;-63
2022/12/09 09:17:01;;;;;;;90.37;26.63;;;1.70;99.90;;;;;;4145312;28;20321;-64
2022/12/09 09:19:04;;;;;;;88.10;28.20;;;1.70;99.90;;;;;;4146351;28;20766;-64
2022/12/09 09:21:07;;;;;;;183.50;35.40;;;1.80;99.90;;;;;;4143667;28;20279;-61
2022/12/09 09:23:08;;;;;;;167.97;33.73;;;1.90;99.90;;;;;;4146197;28;20275;-62
2022/12/09 09:25:09;;;;;;;172.13;32.73;;;1.90;99.90;;;;;;4145288;28;20648;-64
2022/12/09 09:27:11;;;;;;;112.33;31.33;;;1.90;99.90;;;;;;4146477;28;20263;-61
2022/12/09 09:29:14;;;;;;;93.13;30.07;;;2.00;99.90;;;;;;4145496;28;20279;-62
2022/12/09 09:31:18;;;;;;;124.03;31.10;;;2.00;99.90;;;;;;4146110;28;20659;-64
2022/12/09 09:33:19;;;;;;;129.40;31.07;;;2.00;99.90;;;;;;4145417;28;20457;-64
2022/12/09 09:35:20;;;;;;;140.63;34.67;;;2.00;99.90;;;;;;4145543;28;20271;-63
2022/12/09 09:37:21;;;;;;;207.13;36.47;;;2.00;99.90;;;;;;4145630;28;20860;-63
2022/12/09 09:39:22;;;;;;;140.60;34.40;;;2.00;99.90;;;;;;4145392;28;20821;-62
2022/12/09 09:41:35;;;;;;;119.77;34.93;;;2.10;99.90;;;;;;4145745;28;20268;-63
2022/12/09 09:43:37;;;;;;;99.07;31.97;;;2.10;99.90;;;;;;4145064;28;20762;-62
2022/12/09 09:45:38;;;;;;;116.97;33.20;;;2.20;99.90;;;;;;4145975;28;20616;-61
2022/12/09 09:47:51;;;;;;;100.30;34.13;;;2.20;99.90;;;;;;4144954;28;20240;-62
2022/12/09 09:50:00;;;;;;;120.47;34.13;;;2.20;99.90;;;;;;4145832;28;20263;-62
2022/12/09 09:52:11;;;;;;;86.43;32.63;;;2.30;99.90;;;;;;4143983;28;20764;-63
2022/12/09 09:54:14;;;;;;;108.57;33.83;;;2.40;99.90;;;;;;4146079;28;20370;-63
2022/12/09 09:56:23;;;;;;;121.50;35.40;;;2.40;99.90;;;;;;4144881;28;20267;-62
2022/12/09 09:58:36;;;;;;;113.00;35.63;;;2.40;99.90;;;;;;4145746;28;20683;-63
2022/12/09 10:01:11;;;;;;;107.90;35.23;;;2.40;99.90;;;;;;4144686;28;20643;-62
2022/12/09 10:03:34;;;;;;;91.13;34.37;;;2.50;99.90;;;;;;4136304;28;20263;-63
2022/12/09 10:05:48;;;;;;;93.50;34.80;;;2.50;99.90;;;;;;4145168;28;20748;-65
2022/12/09 10:07:57;;;;;;;89.77;33.40;;;2.60;99.90;;;;;;4144797;28;20659;-63
2022/12/09 10:10:21;;;;;;;86.73;34.97;;;2.60;99.90;;;;;;4145301;28;20271;-64
2022/12/09 10:12:41;;;;;;;95.13;35.97;;;2.70;99.90;;;;;;4135138;28;20291;-64
2022/12/09 10:15:08;;;;;;;87.15;34.83;;;2.80;99.90;;;;;;4145533;28;20383;-63
2022/12/09 10:17:12;;;;;;;92.00;34.40;;;2.90;99.90;;;;;;4144488;28;20084;-66
2022/12/09 10:19:27;;;;;;;91.23;37.17;;;3.00;99.90;;;;;;4145637;28;20382;-63
2022/12/09 10:21:31;;;;;;;87.50;36.30;;;3.10;99.90;;;;;;4144489;28;20317;-63
2022/12/09 10:23:32;;;;;;;85.83;36.07;;;3.20;99.90;;;;;;4145485;28;20326;-64
2022/12/09 10:25:37;;;;;;;88.17;36.70;;;3.30;99.90;;;;;;4144403;28;20313;-64
2022/12/09 10:27:41;;;;;;;81.17;36.87;;;3.40;99.90;;;;;;4145464;28;20620;-64
2022/12/09 10:30:00;;;;;;;90.03;37.23;;;3.60;99.90;;;;;;4144028;28;20267;-61